createdAt,value
2018-03-07T00:01:11.247Z,43.57
2018-03-07T00:03:37.503Z,42.87
2018-03-07T00:06:03.805Z,42.30
2018-03-07T00:08:30.105Z,43.03
2018-03-07T00:10:56.383Z,43.87
2018-03-07T00:13:23.155Z,43.83
2018-03-07T00:15:49.433Z,42.07
2018-03-07T00:18:15.874Z,42.93
2018-03-07T00:20:42.178Z,42.60
2018-03-07T00:23:08.438Z,48.87
2018-03-07T00:25:34.722Z,52.57
2018-03-07T00:28:00.987Z,71.03
2018-03-07T00:30:28.010Z,46.73
2018-03-07T00:32:55.009Z,53.37
2018-03-07T00:35:21.268Z,46.57
2018-03-07T00:37:48.304Z,43.53
2018-03-07T00:40:14.566Z,45.53
2018-03-07T00:42:40.913Z,47.53
2018-03-07T00:45:07.918Z,44.27
2018-03-07T00:47:34.169Z,45.33
2018-03-07T00:50:01.268Z,44.67
2018-03-07T00:52:27.529Z,43.80
2018-03-07T00:54:54.555Z,45.23
2018-03-07T00:57:21.547Z,42.90
2018-03-07T00:59:47.804Z,45.10
2018-03-07T01:02:14.089Z,45.80
2018-03-07T01:04:40.386Z,44.23
2018-03-07T01:07:06.960Z,42.47
2018-03-07T01:09:33.248Z,44.93
2018-03-07T01:11:59.538Z,44.17
2018-03-07T01:14:25.863Z,41.70
2018-03-07T01:16:52.164Z,40.63
2018-03-07T01:19:18.422Z,40.27
2018-03-07T01:21:44.698Z,42.43
2018-03-07T01:24:11.729Z,40.53
2018-03-07T01:26:37.981Z,40.60
2018-03-07T01:29:04.264Z,37.53
2018-03-07T01:31:30.595Z,35.03
2018-03-07T01:33:56.926Z,35.77
2018-03-07T01:36:23.184Z,38.07
2018-03-07T01:38:49.444Z,37.43
2018-03-07T01:41:15.734Z,37.67
2018-03-07T01:43:42.005Z,36.63
2018-03-07T01:46:08.302Z,35.57
2018-03-07T01:48:35.349Z,36.27
2018-03-07T01:51:02.356Z,37.07
2018-03-07T01:53:28.636Z,36.07
2018-03-07T01:55:54.928Z,32.70
2018-03-07T01:58:21.243Z,33.87
2018-03-07T02:00:47.541Z,30.17
2018-03-07T02:03:14.546Z,31.03
2018-03-07T02:05:40.867Z,29.93
2018-03-07T02:08:07.415Z,30.03
2018-03-07T02:10:33.693Z,27.03
2018-03-07T02:13:00.004Z,27.70
2018-03-07T02:15:26.281Z,27.37
2018-03-07T02:17:52.732Z,26.60
2018-03-07T02:20:18.984Z,26.60
2018-03-07T02:22:46.019Z,25.30
2018-03-07T02:25:13.044Z,26.13
2018-03-07T02:27:39.290Z,24.63
2018-03-07T02:30:05.594Z,24.27
2018-03-07T02:32:31.925Z,24.93
2018-03-07T02:34:58.225Z,24.20
2018-03-07T02:37:25.225Z,23.30
2018-03-07T02:39:51.548Z,20.97
2018-03-07T02:42:19.120Z,24.37
2018-03-07T02:44:50.111Z,22.93
2018-03-07T02:47:19.566Z,23.57
2018-03-07T02:49:47.788Z,23.13
2018-03-07T02:52:15.944Z,23.57
2018-03-07T02:54:43.046Z,20.87
2018-03-07T02:57:09.313Z,22.23
2018-03-07T02:59:35.621Z,22.73
2018-03-07T03:02:01.923Z,20.03
2018-03-07T03:04:28.949Z,20.93
2018-03-07T03:06:55.232Z,21.50
2018-03-07T03:09:21.653Z,22.07
2018-03-07T03:11:47.948Z,21.23
2018-03-07T03:14:14.243Z,21.70
2018-03-07T03:16:40.500Z,21.93
2018-03-07T03:19:06.872Z,22.43
2018-03-07T03:21:33.137Z,23.27
2018-03-07T03:23:59.437Z,21.37
2018-03-07T03:26:25.736Z,20.93
2018-03-07T03:28:52.000Z,21.73
2018-03-07T03:31:19.047Z,20.40
2018-03-07T03:33:45.330Z,19.00
2018-03-07T03:36:11.630Z,22.03
2018-03-07T03:38:38.037Z,20.93
2018-03-07T03:41:04.353Z,21.30
2018-03-07T03:43:30.660Z,20.10
2018-03-07T03:45:56.947Z,21.57
2018-03-07T03:48:23.223Z,18.70
2018-03-07T03:50:49.500Z,20.77
2018-03-07T03:53:15.804Z,19.00
2018-03-07T03:55:42.173Z,19.50
2018-03-07T03:58:08.645Z,19.33
2018-03-07T04:00:34.951Z,19.53
2018-03-07T04:03:01.207Z,18.87
2018-03-07T04:05:27.481Z,18.50
2018-03-07T04:07:53.772Z,18.30
2018-03-07T04:10:20.792Z,17.63
2018-03-07T04:12:47.106Z,17.77
2018-03-07T04:15:13.393Z,18.90
2018-03-07T04:17:39.665Z,19.23
2018-03-07T04:20:06.011Z,17.80
2018-03-07T04:22:32.268Z,18.90
2018-03-07T04:24:58.554Z,18.57
2018-03-07T04:27:24.816Z,18.20
2018-03-07T04:29:56.616Z,18.97
2018-03-07T04:32:25.364Z,17.73
2018-03-07T04:34:53.575Z,17.70
2018-03-07T04:37:22.303Z,17.33
2018-03-07T04:39:51.156Z,17.03
2018-03-07T04:42:17.471Z,18.43
2018-03-07T04:44:43.763Z,17.63
2018-03-07T04:47:10.032Z,17.50
2018-03-07T04:49:36.347Z,16.70
2018-03-07T04:52:02.634Z,17.23
2018-03-07T04:54:29.040Z,16.43
2018-03-07T04:56:55.359Z,18.80
2018-03-07T04:59:21.617Z,18.03
2018-03-07T05:01:47.890Z,18.87
2018-03-07T05:04:14.203Z,18.63
2018-03-07T05:06:40.466Z,20.13
2018-03-07T05:09:06.744Z,20.23
2018-03-07T05:11:33.030Z,19.47
2018-03-07T05:14:00.024Z,20.50
2018-03-07T05:16:26.354Z,19.90
2018-03-07T05:18:52.719Z,18.80
2018-03-07T05:21:19.080Z,18.73
2018-03-07T05:23:45.366Z,21.80
2018-03-07T05:26:11.629Z,21.00
2018-03-07T05:28:37.922Z,22.17
2018-03-07T05:31:04.229Z,21.07
2018-03-07T05:33:30.493Z,22.20
2018-03-07T05:35:57.546Z,21.93
2018-03-07T05:38:23.801Z,20.70
2018-03-07T05:40:50.096Z,21.30
2018-03-07T05:43:16.363Z,21.50
2018-03-07T05:45:42.700Z,24.97
2018-03-07T05:48:09.742Z,21.07
2018-03-07T05:50:36.007Z,22.00
2018-03-07T05:53:02.546Z,24.70
2018-03-07T05:55:29.553Z,26.00
2018-03-07T05:57:55.839Z,26.53
2018-03-07T06:00:22.153Z,23.53
2018-03-07T06:02:48.435Z,28.23
2018-03-07T06:05:15.527Z,28.20
2018-03-07T06:07:41.835Z,28.60
2018-03-07T06:10:08.105Z,26.70
2018-03-07T06:12:35.135Z,24.00
2018-03-07T06:15:02.321Z,29.20
2018-03-07T06:17:28.647Z,29.83
2018-03-07T06:19:54.940Z,29.27
2018-03-07T06:22:21.625Z,27.70
2018-03-07T06:24:47.963Z,29.17
2018-03-07T06:27:14.251Z,29.20
2018-03-07T06:29:41.283Z,29.93
2018-03-07T06:32:08.302Z,29.97
2018-03-07T06:34:34.586Z,30.97
2018-03-07T06:37:00.880Z,32.83
2018-03-07T06:39:27.895Z,31.90
2018-03-07T06:41:54.930Z,33.10
2018-03-07T06:44:21.196Z,31.83
2018-03-07T06:46:47.477Z,30.30
2018-03-07T06:49:13.815Z,32.07
2018-03-07T06:51:41.121Z,31.77
2018-03-07T06:54:07.433Z,32.37
2018-03-07T06:56:33.721Z,34.97
2018-03-07T06:59:00.146Z,33.50
2018-03-07T07:01:26.446Z,33.97
2018-03-07T07:03:52.722Z,35.17
2018-03-07T07:06:20.020Z,32.83
2018-03-07T07:08:47.054Z,32.00
2018-03-07T07:11:14.074Z,33.40
2018-03-07T07:13:40.398Z,33.90
2018-03-07T07:16:08.182Z,34.20
2018-03-07T07:18:34.673Z,31.40
2018-03-07T07:21:01.803Z,34.03
2018-03-07T07:23:29.322Z,29.90
2018-03-07T07:25:55.727Z,28.93
2018-03-07T07:28:21.978Z,32.03
2018-03-07T07:30:49.138Z,28.87
2018-03-07T07:33:15.410Z,28.73
2018-03-07T07:35:41.682Z,30.73
2018-03-07T07:38:07.990Z,28.87
2018-03-07T07:40:35.587Z,33.00
2018-03-07T07:43:02.707Z,32.50
2018-03-07T07:45:29.084Z,29.40
2018-03-07T07:47:55.346Z,31.30
2018-03-07T07:50:21.662Z,28.47
2018-03-07T07:52:47.976Z,28.90
2018-03-07T07:55:14.259Z,29.47
2018-03-07T07:57:40.581Z,28.10
2018-03-07T08:00:06.830Z,26.60
2018-03-07T08:02:33.140Z,26.27
2018-03-07T08:04:59.398Z,27.27
2018-03-07T08:07:25.753Z,26.60
2018-03-07T08:09:52.853Z,26.30
2018-03-07T08:12:19.135Z,24.80
2018-03-07T08:14:45.440Z,26.03
2018-03-07T08:17:11.716Z,26.07
2018-03-07T08:19:38.073Z,26.23
2018-03-07T08:22:04.344Z,27.17
2018-03-07T08:24:30.594Z,26.40
2018-03-07T08:26:56.878Z,25.23
2018-03-07T08:29:23.890Z,27.30
2018-03-07T08:31:50.197Z,26.10
2018-03-07T08:34:17.214Z,24.47
2018-03-07T08:36:44.263Z,23.73
2018-03-07T08:39:11.307Z,26.47
2018-03-07T08:41:37.566Z,26.60
2018-03-07T08:44:03.888Z,25.10
2018-03-07T08:46:30.139Z,27.47
2018-03-07T08:48:57.163Z,33.50
2018-03-07T08:51:24.248Z,25.63
2018-03-07T08:53:50.544Z,29.00
2018-03-07T08:56:16.829Z,29.37
2018-03-07T08:58:43.853Z,23.13
2018-03-07T09:01:10.865Z,24.07
2018-03-07T09:03:37.165Z,23.47
2018-03-07T09:06:03.494Z,22.90
2018-03-07T09:08:29.794Z,19.80
2018-03-07T09:10:56.051Z,19.63
2018-03-07T09:13:23.071Z,19.07
2018-03-07T09:15:49.450Z,19.20
2018-03-07T09:18:15.730Z,16.67
2018-03-07T09:20:42.087Z,16.97
2018-03-07T09:23:08.372Z,15.83
2018-03-07T09:25:34.674Z,15.60
2018-03-07T09:28:00.946Z,13.00
2018-03-07T09:30:27.231Z,15.67
2018-03-07T09:32:53.524Z,15.23
2018-03-07T09:35:19.831Z,13.47
2018-03-07T09:37:46.138Z,13.40
2018-03-07T09:40:13.174Z,13.37
2018-03-07T09:42:40.240Z,14.33
2018-03-07T09:45:06.598Z,15.57
2018-03-07T09:47:32.833Z,14.23
2018-03-07T09:49:59.900Z,11.90
2018-03-07T09:52:26.450Z,11.73
2018-03-07T09:54:52.734Z,10.17
2018-03-07T09:57:19.037Z,10.10
2018-03-07T09:59:45.305Z,11.00
2018-03-07T10:02:11.594Z,9.13
2018-03-07T10:04:37.878Z,8.70
2018-03-07T10:07:04.275Z,8.40
2018-03-07T10:09:30.529Z,6.47
2018-03-07T10:11:56.854Z,5.50
2018-03-07T10:14:23.894Z,2.97
2018-03-07T10:16:50.176Z,2.50
2018-03-07T10:19:16.472Z,1.70
2018-03-07T10:21:43.510Z,1.60
2018-03-07T10:24:10.549Z,1.63
2018-03-07T10:26:37.633Z,1.50
2018-03-07T10:29:03.879Z,1.40
2018-03-07T10:31:30.196Z,1.80
2018-03-07T10:33:56.502Z,1.50
2018-03-07T10:36:22.796Z,1.83
2018-03-07T10:38:49.082Z,1.50
2018-03-07T10:41:15.367Z,1.30
2018-03-07T10:43:42.426Z,0.80
2018-03-07T10:46:08.697Z,1.43
2018-03-07T10:48:35.057Z,1.80
2018-03-07T10:51:01.367Z,0.93
2018-03-07T10:53:27.646Z,1.10
2018-03-07T10:55:53.955Z,1.43
2018-03-07T10:58:20.309Z,1.13
2018-03-07T11:00:46.732Z,1.33
2018-03-07T11:03:13.050Z,1.20
2018-03-07T11:05:39.331Z,1.43
2018-03-07T11:08:05.623Z,1.20
2018-03-07T11:10:31.898Z,1.17
2018-03-07T11:12:58.191Z,0.80
2018-03-07T11:15:25.234Z,1.20
2018-03-07T11:17:52.242Z,0.70
2018-03-07T11:20:18.543Z,0.57
2018-03-07T11:22:44.965Z,1.20
2018-03-07T11:25:11.231Z,3.03
2018-03-07T11:27:37.559Z,2.07
2018-03-07T11:30:03.873Z,1.10
2018-03-07T11:32:30.204Z,0.87
2018-03-07T11:34:56.470Z,0.93
2018-03-07T11:37:23.471Z,1.57
2018-03-07T11:39:49.790Z,1.03
2018-03-07T11:42:16.074Z,0.43
2018-03-07T11:44:42.353Z,0.47
2018-03-07T11:47:09.365Z,0.60
2018-03-07T11:49:35.630Z,0.70
2018-03-07T11:52:01.929Z,0.63
2018-03-07T11:54:28.218Z,0.57
2018-03-07T11:56:55.279Z,0.40
2018-03-07T11:59:21.556Z,0.43
2018-03-07T12:01:47.868Z,0.93
2018-03-07T12:04:14.951Z,0.70
2018-03-07T12:06:41.238Z,0.40
2018-03-07T12:09:07.538Z,0.60
2018-03-07T12:11:33.853Z,0.63
2018-03-07T12:14:00.140Z,0.67
2018-03-07T12:16:26.484Z,0.37
2018-03-07T12:18:52.768Z,0.70
2018-03-07T12:21:19.068Z,0.40
2018-03-07T12:23:45.361Z,0.67
2018-03-07T12:26:11.649Z,0.50
2018-03-07T12:28:37.978Z,0.30
2018-03-07T12:31:05.008Z,0.20
2018-03-07T12:33:32.067Z,0.43
2018-03-07T12:35:58.350Z,0.50
2018-03-07T12:38:25.378Z,0.30
2018-03-07T12:40:52.420Z,0.40
2018-03-07T12:43:19.434Z,0.20
2018-03-07T12:45:45.750Z,0.40
2018-03-07T12:48:12.021Z,0.50
2018-03-07T12:50:38.319Z,0.30
2018-03-07T12:53:04.613Z,0.80
2018-03-07T12:55:31.630Z,0.60
2018-03-07T12:57:57.967Z,0.70
2018-03-07T13:00:24.974Z,0.50
2018-03-07T13:02:51.271Z,0.33
2018-03-07T13:05:17.610Z,0.20
2018-03-07T13:07:44.010Z,0.40
2018-03-07T13:10:10.306Z,0.40
2018-03-07T13:12:36.592Z,0.30
2018-03-07T13:15:02.887Z,0.20
2018-03-07T13:17:29.919Z,0.57
2018-03-07T13:19:56.938Z,0.40
2018-03-07T13:22:23.221Z,0.30
2018-03-07T13:24:49.586Z,0.60
2018-03-07T13:27:16.892Z,0.77
2018-03-07T13:29:43.969Z,0.20
2018-03-07T13:32:10.970Z,0.30
2018-03-07T13:34:37.295Z,0.50
2018-03-07T13:37:03.598Z,0.47
2018-03-07T13:39:30.655Z,0.40
2018-03-07T13:41:57.726Z,0.20
2018-03-07T13:44:24.298Z,0.30
2018-03-07T13:46:50.571Z,0.30
2018-03-07T13:49:16.879Z,0.30
2018-03-07T13:51:43.213Z,0.60
2018-03-07T13:54:09.517Z,0.20
2018-03-07T13:56:35.793Z,1.53
2018-03-07T13:59:02.385Z,2.90
2018-03-07T14:01:28.739Z,0.90
2018-03-07T14:03:55.749Z,1.40
2018-03-07T14:06:22.006Z,1.30
2018-03-07T14:08:48.306Z,0.57
2018-03-07T14:11:15.309Z,0.40
2018-03-07T14:13:41.618Z,0.40
2018-03-07T14:16:07.898Z,0.20
2018-03-07T14:18:34.158Z,0.30
2018-03-07T14:21:00.454Z,0.30
2018-03-07T14:23:26.792Z,0.30
2018-03-07T14:25:53.120Z,0.10
2018-03-07T14:28:20.165Z,0.37
2018-03-07T14:30:46.459Z,0.30
2018-03-07T14:33:13.485Z,0.23
2018-03-07T14:35:39.751Z,0.10
2018-03-07T14:38:06.338Z,0.27
2018-03-07T14:40:33.377Z,0.30
2018-03-07T14:43:00.843Z,0.30
2018-03-07T14:45:27.171Z,0.40
2018-03-07T14:47:53.836Z,0.30
2018-03-07T14:50:20.177Z,0.50
2018-03-07T14:52:46.492Z,0.70
2018-03-07T14:55:13.527Z,0.63
2018-03-07T14:57:39.862Z,0.70
2018-03-07T15:00:06.311Z,2.10
2018-03-07T15:02:32.617Z,1.40
2018-03-07T15:04:58.914Z,1.80
2018-03-07T15:07:25.197Z,1.83
2018-03-07T15:09:52.247Z,0.77
2018-03-07T15:12:18.535Z,0.50
2018-03-07T15:14:44.840Z,0.20
2018-03-07T15:17:11.638Z,0.40
2018-03-07T15:19:38.414Z,0.40
2018-03-07T15:22:04.767Z,0.50
2018-03-07T15:24:31.067Z,0.27
2018-03-07T15:26:57.388Z,0.20
2018-03-07T15:29:23.674Z,0.30
2018-03-07T15:31:50.704Z,0.40
2018-03-07T15:34:17.911Z,0.37
2018-03-07T15:36:44.255Z,0.20
2018-03-07T15:39:10.555Z,0.20
2018-03-07T15:41:36.822Z,0.40
2018-03-07T15:44:03.093Z,0.40
2018-03-07T15:46:29.380Z,0.70
2018-03-07T15:48:56.439Z,0.50
2018-03-07T15:51:22.931Z,1.00
2018-03-07T15:53:50.037Z,0.80
2018-03-07T15:56:16.435Z,0.90
2018-03-07T15:58:44.502Z,1.10
2018-03-07T16:01:10.876Z,0.77
2018-03-07T16:03:37.942Z,1.10
2018-03-07T16:06:04.968Z,1.30
2018-03-07T16:08:31.984Z,1.67
2018-03-07T16:10:58.280Z,1.93
2018-03-07T16:13:24.546Z,1.60
2018-03-07T16:15:50.854Z,0.90
2018-03-07T16:18:17.158Z,1.53
2018-03-07T16:20:44.162Z,1.10
2018-03-07T16:23:10.467Z,1.20
2018-03-07T16:25:36.767Z,1.10
2018-03-07T16:28:03.119Z,1.07
2018-03-07T16:30:29.394Z,1.20
2018-03-07T16:32:55.659Z,1.00
2018-03-07T16:35:21.953Z,1.20
2018-03-07T16:37:48.266Z,1.33
2018-03-07T16:40:14.559Z,1.30
2018-03-07T16:42:41.432Z,1.23
2018-03-07T16:45:07.754Z,1.10
2018-03-07T16:47:34.033Z,1.40
2018-03-07T16:50:00.316Z,1.60
2018-03-07T16:52:26.802Z,1.37
2018-03-07T16:54:53.063Z,2.40
2018-03-07T16:57:19.365Z,1.87
2018-03-07T16:59:45.656Z,2.13
2018-03-07T17:02:12.059Z,2.40
2018-03-07T17:04:38.347Z,1.77
2018-03-07T17:07:04.628Z,1.70
2018-03-07T17:09:30.897Z,1.70
2018-03-07T17:11:57.252Z,1.40
2018-03-07T17:14:24.246Z,1.83
2018-03-07T17:16:50.546Z,1.70
2018-03-07T17:19:16.838Z,1.23
2018-03-07T17:21:43.089Z,1.77
2018-03-07T17:24:09.394Z,1.40
2018-03-07T17:26:35.699Z,1.70
2018-03-07T17:29:02.030Z,1.50
2018-03-07T17:31:28.310Z,1.60
2018-03-07T17:33:54.598Z,1.40
2018-03-07T17:36:21.634Z,1.37
2018-03-07T17:38:48.678Z,1.70
2018-03-07T17:41:14.999Z,1.87
2018-03-07T17:43:42.042Z,2.60
2018-03-07T17:46:08.337Z,8.17
2018-03-07T17:48:34.606Z,7.00
2018-03-07T17:51:00.904Z,12.80
2018-03-07T17:53:27.196Z,7.53
2018-03-07T17:55:53.619Z,4.10
2018-03-07T17:58:19.941Z,2.60
2018-03-07T18:00:46.262Z,1.73
2018-03-07T18:03:12.554Z,2.30
2018-03-07T18:05:38.850Z,2.60
2018-03-07T18:08:05.890Z,2.70
2018-03-07T18:10:32.958Z,2.53
2018-03-07T18:12:59.405Z,2.80
2018-03-07T18:15:25.755Z,2.83
2018-03-07T18:17:52.853Z,2.97
2018-03-07T18:20:19.200Z,2.27
2018-03-07T18:22:46.267Z,2.17
2018-03-07T18:25:12.640Z,2.30
2018-03-07T18:27:39.744Z,2.03
2018-03-07T18:30:06.139Z,2.70
2018-03-07T18:32:32.586Z,2.50
2018-03-07T18:34:59.400Z,2.10
2018-03-07T18:37:26.630Z,2.57
2018-03-07T18:39:52.926Z,2.00
2018-03-07T18:42:19.203Z,1.80
2018-03-07T18:44:45.473Z,1.70
2018-03-07T18:47:11.770Z,1.80
2018-03-07T18:49:38.059Z,1.90
2018-03-07T18:52:05.081Z,2.10
2018-03-07T18:54:31.333Z,1.60
2018-03-07T18:56:57.602Z,1.77
2018-03-07T18:59:23.882Z,2.43
2018-03-07T19:01:50.418Z,2.37
2018-03-07T19:04:16.701Z,2.20
2018-03-07T19:06:42.973Z,2.20
2018-03-07T19:09:09.262Z,2.17
2018-03-07T19:11:35.611Z,2.23
2018-03-07T19:14:01.944Z,2.30
2018-03-07T19:16:28.263Z,2.40
2018-03-07T19:18:54.581Z,2.70
2018-03-07T19:21:20.855Z,2.73
2018-03-07T19:23:47.292Z,2.00
2018-03-07T19:26:14.351Z,2.20
2018-03-07T19:28:40.692Z,1.67
2018-03-07T19:31:06.948Z,1.33
2018-03-07T19:33:33.213Z,1.67
2018-03-07T19:35:59.499Z,1.50
2018-03-07T19:38:26.512Z,2.10
2018-03-07T19:40:52.806Z,2.03
2018-03-07T19:43:19.081Z,1.40
2018-03-07T19:45:45.358Z,1.90
2018-03-07T19:48:11.655Z,1.70
2018-03-07T19:50:37.960Z,2.20
2018-03-07T19:53:04.293Z,2.80
2018-03-07T19:55:30.594Z,2.50
2018-03-07T19:57:56.855Z,1.90
2018-03-07T20:00:23.941Z,2.03
2018-03-07T20:02:50.230Z,2.00
2018-03-07T20:05:16.520Z,2.53
2018-03-07T20:07:43.535Z,3.07
2018-03-07T20:10:10.530Z,5.47
2018-03-07T20:12:36.821Z,2.27
2018-03-07T20:15:03.111Z,2.30
2018-03-07T20:17:29.618Z,1.37
2018-03-07T20:19:56.248Z,1.90
2018-03-07T20:22:22.550Z,2.13
2018-03-07T20:24:48.838Z,1.93
2018-03-07T20:27:15.146Z,2.30
2018-03-07T20:29:41.515Z,2.30
2018-03-07T20:32:08.550Z,2.17
2018-03-07T20:34:35.566Z,1.60
2018-03-07T20:37:01.837Z,2.23
2018-03-07T20:39:28.134Z,2.50
2018-03-07T20:41:54.465Z,2.00
2018-03-07T20:44:20.729Z,2.10
2018-03-07T20:46:46.993Z,2.30
2018-03-07T20:49:13.937Z,2.20
2018-03-07T20:51:40.494Z,3.00
2018-03-07T20:54:06.820Z,1.93
2018-03-07T20:56:33.948Z,2.33
2018-03-07T20:59:00.337Z,2.70
2018-03-07T21:01:26.654Z,2.27
2018-03-07T21:03:52.934Z,2.50
2018-03-07T21:06:19.239Z,2.23
2018-03-07T21:08:48.883Z,2.40
2018-03-07T21:11:15.598Z,2.40
2018-03-07T21:13:43.012Z,2.17
2018-03-07T21:16:09.776Z,1.87
2018-03-07T21:18:37.714Z,2.60
2018-03-07T21:21:06.673Z,2.10
2018-03-07T21:23:33.556Z,2.50
2018-03-07T21:26:00.110Z,2.83
2018-03-07T21:28:26.408Z,2.97
2018-03-07T21:30:53.903Z,2.30
2018-03-07T21:33:20.455Z,3.00
2018-03-07T21:35:47.118Z,2.60
2018-03-07T21:38:13.399Z,3.00
2018-03-07T21:40:39.697Z,2.90
2018-03-07T21:43:05.992Z,4.17
2018-03-07T21:45:32.257Z,3.70
2018-03-07T21:47:59.477Z,4.87
2018-03-07T21:50:26.607Z,4.93
2018-03-07T21:52:52.865Z,5.50
2018-03-07T21:55:19.134Z,5.73
2018-03-07T21:57:45.417Z,6.53
2018-03-07T22:00:11.779Z,6.80
2018-03-07T22:02:38.041Z,6.57
2018-03-07T22:05:04.667Z,6.97
2018-03-07T22:07:31.442Z,6.50
2018-03-07T22:09:57.961Z,6.93
2018-03-07T22:12:24.979Z,6.40
2018-03-07T22:14:51.489Z,8.07
2018-03-07T22:17:17.959Z,8.13
2018-03-07T22:19:44.409Z,7.93
2018-03-07T22:22:10.702Z,7.20
2018-03-07T22:24:37.201Z,8.43
2018-03-07T22:27:04.243Z,8.27
2018-03-07T22:29:30.646Z,9.37
2018-03-07T22:31:57.653Z,8.73
2018-03-07T22:34:23.970Z,9.60
2018-03-07T22:36:50.314Z,9.17
2018-03-07T22:39:17.329Z,9.80
2018-03-07T22:41:43.614Z,10.43
2018-03-07T22:44:09.877Z,9.47
2018-03-07T22:46:36.903Z,9.37
2018-03-07T22:49:03.910Z,9.63
2018-03-07T22:51:30.186Z,9.27
2018-03-07T22:53:56.491Z,9.03
2018-03-07T22:56:22.758Z,8.70
2018-03-07T22:58:49.038Z,9.00
2018-03-07T23:01:15.308Z,8.00
2018-03-07T23:03:41.603Z,8.33
2018-03-07T23:06:10.311Z,8.20
2018-03-07T23:08:39.724Z,8.27
2018-03-07T23:11:08.769Z,7.87
2018-03-07T23:13:38.193Z,7.53
2018-03-07T23:16:06.706Z,7.30
2018-03-07T23:18:35.491Z,6.70
2018-03-07T23:21:03.236Z,6.67
2018-03-07T23:23:32.032Z,7.27
2018-03-07T23:26:00.743Z,6.37
2018-03-07T23:28:29.434Z,7.17
2018-03-07T23:30:57.895Z,6.50
2018-03-07T23:33:26.603Z,7.37
2018-03-07T23:35:56.240Z,7.37
2018-03-07T23:38:25.002Z,7.17
2018-03-07T23:40:53.629Z,6.67
2018-03-07T23:43:21.374Z,6.60
2018-03-07T23:45:50.313Z,6.70
2018-03-07T23:48:19.028Z,7.27
2018-03-07T23:50:47.820Z,6.47
2018-03-07T23:53:16.604Z,6.77
2018-03-07T23:55:45.290Z,7.10
2018-03-07T23:58:13.656Z,6.63
